Time;durP1;ratioP1;P1;durP2;ratioP2;P2;SDS_P1;SDS_P2;PMS_P1;PMS_P2;Temp;Humidity;BMP_temperature;BMP_pressure;BME280_temperature;BME280_humidity;BME280_pressure;Samples;Min_cycle;Max_cycle;Signal;HPM_P1;HPM_P2
2022/11/08 00:01:35;;;;;;;1.80;1.10;;;;;;;24.34;nan;99223.25;5048967;28;20409;-70
2022/11/08 00:04:03;;;;;;;1.92;1.05;;;;;;;24.34;nan;99232.44;5058998;28;20463;-57
2022/11/08 00:14:42;;;;;;;2.03;1.25;;;;;;;24.34;nan;99212.88;5049539;28;20114;-69
2022/11/08 00:17:08;;;;;;;1.92;1.20;;;;;;;24.33;nan;99204.91;5062280;28;20057;-57
2022/11/08 00:19:34;;;;;;;1.98;1.15;;;;;;;24.35;nan;99216.47;5052522;28;20047;-69
2022/11/08 00:21:59;;;;;;;2.17;1.20;;;;;;;24.34;nan;99212.88;5056258;28;20048;-69
2022/11/08 00:24:25;;;;;;;1.85;1.15;;;;;;;24.34;nan;99206.47;5053916;28;20068;-69
2022/11/08 00:26:50;;;;;;;1.85;1.13;;;;;;;24.35;nan;99205.28;5059606;28;20044;-69
2022/11/08 00:29:16;;;;;;;2.10;1.23;;;;;;;24.34;nan;99203.69;5059388;28;20044;-57
2022/11/08 00:31:42;;;;;;;1.67;1.02;;;;;;;24.32;nan;99214.44;5058199;28;20103;-57
2022/11/08 00:34:08;;;;;;;1.40;0.95;;;;;;;24.35;nan;99219.25;5049949;28;20053;-57
2022/11/08 00:36:33;;;;;;;1.30;0.90;;;;;;;24.33;nan;99214.06;5062370;28;20035;-57
2022/11/08 00:38:58;;;;;;;1.75;1.08;;;;;;;24.34;nan;99215.66;5066135;28;20072;-57
2022/11/08 00:41:24;;;;;;;2.05;1.23;;;;;;;24.34;nan;99215.66;5065860;28;20455;-58
2022/11/08 00:43:49;;;;;;;2.17;1.20;;;;;;;24.36;nan;99218.06;5053091;28;20079;-70
2022/11/08 00:46:15;;;;;;;1.90;1.20;;;;;;;24.36;nan;99223.63;5048249;28;20443;-57
2022/11/08 00:48:41;;;;;;;2.08;1.20;;;;;;;24.35;nan;99222.84;5060749;28;20492;-57
2022/11/08 00:51:09;;;;;;;1.70;1.08;;;;;;;24.35;nan;99213.66;5058654;28;20525;-57
2022/11/08 00:53:39;;;;;;;1.95;1.05;;;;;;;24.34;nan;99214.88;5058464;28;20051;-58
2022/11/08 00:56:07;;;;;;;2.47;1.38;;;;;;;24.33;nan;99210.47;5051294;28;20549;-69
2022/11/08 00:58:33;;;;;;;1.98;1.20;;;;;;;24.35;nan;99216.47;5054525;28;20044;-57
2022/11/08 01:00:58;;;;;;;2.13;1.20;;;;;;;24.34;nan;99200.88;5048025;28;20051;-69
2022/11/08 01:03:25;;;;;;;1.77;1.10;;;;;;;24.34;nan;99198.88;5059916;28;21337;-69
2022/11/08 01:05:53;;;;;;;1.75;1.10;;;;;;;24.35;nan;99197.69;5056365;28;20044;-69
2022/11/08 01:08:20;;;;;;;1.73;1.15;;;;;;;24.33;nan;99193.72;5065886;28;20036;-68
2022/11/08 01:10:49;;;;;;;1.58;1.05;;;;;;;24.36;nan;99195.69;5051954;28;20056;-57
2022/11/08 01:13:15;;;;;;;1.88;1.20;;;;;;;24.36;nan;99192.88;5061027;28;20045;-69
2022/11/08 01:15:42;;;;;;;2.03;1.30;;;;;;;24.36;nan;99199.31;5047662;28;20041;-57
2022/11/08 01:18:10;;;;;;;1.50;1.00;;;;;;;24.37;nan;99180.53;5054446;28;20127;-69
2022/11/08 01:20:40;;;;;;;2.22;1.25;;;;;;;24.35;nan;99185.72;5053389;28;20047;-57
2022/11/08 01:23:06;;;;;;;1.70;1.10;;;;;;;24.36;nan;99188.13;5044690;28;20033;-69
2022/11/08 01:25:38;;;;;;;1.80;1.10;;;;;;;24.36;nan;99190.91;5046643;28;20052;-69
2022/11/08 01:28:04;;;;;;;2.15;1.23;;;;;;;24.36;nan;99204.06;5049927;28;20036;-69
2022/11/08 01:30:33;;;;;;;2.03;1.30;;;;;;;24.36;nan;99202.09;5052112;28;20045;-58
2022/11/08 01:32:58;;;;;;;1.90;1.15;;;;;;;24.37;nan;99200.91;5057005;28;20041;-69
2022/11/08 01:35:24;;;;;;;2.22;1.23;;;;;;;24.35;nan;99197.69;5060342;28;20047;-69
2022/11/08 01:37:50;;;;;;;1.92;1.27;;;;;;;24.36;nan;99196.50;5065146;28;20052;-56
2022/11/08 01:40:15;;;;;;;1.50;1.10;;;;;;;24.35;nan;99191.31;5063363;28;20047;-69
2022/11/08 01:42:41;;;;;;;1.92;1.10;;;;;;;24.35;nan;99197.69;5053608;28;20049;-57
2022/11/08 01:45:08;;;;;;;1.80;1.10;;;;;;;24.35;nan;99206.06;5058106;28;20028;-56
2022/11/08 01:47:34;;;;;;;2.20;1.20;;;;;;;24.34;nan;99184.91;5059546;28;20117;-56
2022/11/08 01:50:05;;;;;;;1.83;1.23;;;;;;;24.35;nan;99194.88;5056253;28;20516;-70
2022/11/08 01:52:38;;;;;;;2.13;1.35;;;;;;;24.35;nan;99202.47;5063408;28;20508;-57
2022/11/08 01:55:29;;;;;;;1.85;1.10;;;;;;;24.34;nan;99190.50;5057161;28;20041;-57
2022/11/08 01:58:18;;;;;;;2.08;1.20;;;;;;;24.36;nan;99181.72;5055977;28;20060;-70
2022/11/08 02:00:44;;;;;;;2.05;1.20;;;;;;;24.33;nan;99174.16;5058663;28;20041;-69
2022/11/08 02:03:12;;;;;;;1.83;1.10;;;;;;;24.35;nan;99180.91;5059403;28;20052;-58
2022/11/08 02:05:39;;;;;;;1.58;1.08;;;;;;;24.36;nan;99178.91;5061180;28;20044;-69
2022/11/08 02:08:23;;;;;;;1.83;1.20;;;;;;;24.35;nan;99175.31;5054046;28;20124;-68
2022/11/08 02:10:51;;;;;;;2.00;1.00;;;;;;;24.36;nan;99164.94;5051302;28;20524;-58
2022/11/08 02:13:23;;;;;;;2.17;1.20;;;;;;;24.35;nan;99160.56;5062848;28;20045;-70
2022/11/08 02:15:48;;;;;;;2.17;1.10;;;;;;;24.33;nan;99165.75;5069399;28;20487;-70
2022/11/08 02:18:16;;;;;;;2.53;1.17;;;;;;;24.35;nan;99174.53;5058929;28;20301;-58
2022/11/08 02:20:50;;;;;;;1.55;1.08;;;;;;;24.36;nan;99162.13;5065629;28;20053;-70
2022/11/08 02:23:37;;;;;;;1.80;1.20;;;;;;;24.35;nan;99163.34;5061464;28;20079;-70
2022/11/08 02:26:03;;;;;;;2.05;1.20;;;;;;;24.36;nan;99165.75;5066263;28;20033;-70
2022/11/08 02:28:28;;;;;;;1.80;0.90;;;;;;;24.35;nan;99164.13;5059517;28;20511;-58
2022/11/08 02:30:53;;;;;;;1.23;0.80;;;;;;;24.35;nan;99163.34;5054103;28;20088;-58
2022/11/08 02:33:21;;;;;;;1.60;1.00;;;;;;;24.35;nan;99150.16;5056891;28;20041;-70
2022/11/08 02:35:56;;;;;;;1.75;1.10;;;;;;;24.34;nan;99139.41;5055446;28;20033;-69
2022/11/08 02:38:24;;;;;;;1.80;1.13;;;;;;;24.35;nan;99129.81;5053947;28;20487;-70
2022/11/08 02:40:55;;;;;;;2.03;1.05;;;;;;;24.35;nan;99129.81;5050978;28;20045;-69
2022/11/08 02:43:21;;;;;;;1.88;1.25;;;;;;;24.34;nan;99137.41;5049228;28;20037;-70
2022/11/08 02:45:47;;;;;;;1.52;1.10;;;;;;;24.35;nan;99115.81;5050220;28;20117;-58
2022/11/08 02:48:13;;;;;;;1.80;1.10;;;;;;;24.34;nan;99128.22;5067225;28;20072;-70
2022/11/08 02:50:39;;;;;;;2.08;1.10;;;;;;;24.33;nan;99135.81;5052220;28;20075;-70
2022/11/08 02:53:05;;;;;;;2.22;1.13;;;;;;;24.33;nan;99130.22;5062672;28;20044;-70
2022/11/08 02:55:33;;;;;;;2.05;1.15;;;;;;;24.32;nan;99109.03;5064814;28;20059;-58
2022/11/08 02:57:59;;;;;;;1.63;1.10;;;;;;;24.34;nan;99123.41;5051321;28;20041;-69
2022/11/08 03:00:25;;;;;;;1.40;0.98;;;;;;;24.35;nan;99130.59;5039937;28;20051;-70
2022/11/08 03:02:54;;;;;;;1.38;0.98;;;;;;;24.35;nan;99107.44;5059838;28;20033;-58
2022/11/08 03:05:20;;;;;;;2.22;1.10;;;;;;;24.35;nan;99140.97;5051157;28;20208;-58
2022/11/08 03:07:46;;;;;;;2.15;1.20;;;;;;;24.34;nan;99119.81;5054583;28;20464;-70
2022/11/08 03:10:13;;;;;;;2.88;1.17;;;;;;;24.34;nan;99128.22;5064642;28;20068;-57
2022/11/08 03:12:39;;;;;;;1.80;1.10;;;;;;;24.32;nan;99103.44;5065640;28;20053;-58
2022/11/08 03:15:06;;;;;;;1.50;0.95;;;;;;;24.34;nan;99122.63;5068753;28;20053;-58
2022/11/08 03:17:32;;;;;;;2.15;1.20;;;;;;;24.31;nan;99112.22;5062268;28;20111;-58
2022/11/08 03:19:57;;;;;;;2.10;1.23;;;;;;;24.34;nan;99131.00;5053432;28;20491;-58
2022/11/08 03:22:22;;;;;;;1.70;1.00;;;;;;;24.34;nan;99114.22;5052548;28;20044;-70
2022/11/08 03:24:48;;;;;;;1.77;1.10;;;;;;;24.34;nan;99131.81;5062822;28;20574;-57
2022/11/08 03:27:14;;;;;;;2.40;1.02;;;;;;;24.33;nan;99129.41;5063820;28;20067;-69
2022/11/08 03:29:40;;;;;;;1.73;1.10;;;;;;;24.32;nan;99120.22;5054452;28;20456;-58
2022/11/08 03:32:05;;;;;;;1.90;1.20;;;;;;;24.33;nan;99124.63;5055413;28;20508;-70
2022/11/08 03:34:31;;;;;;;2.03;1.20;;;;;;;24.33;nan;99116.25;5052256;28;20039;-58
2022/11/08 03:36:56;;;;;;;2.00;1.27;;;;;;;24.31;nan;99140.97;5056479;28;20029;-70
2022/11/08 03:39:21;;;;;;;1.83;1.13;;;;;;;24.34;nan;99125.41;5063496;28;20981;-69
2022/11/08 03:41:47;;;;;;;1.88;1.10;;;;;;;24.33;nan;99137.81;5051055;28;20036;-58
2022/11/08 03:44:12;;;;;;;1.52;1.02;;;;;;;24.32;nan;99125.78;5057347;28;20063;-58
2022/11/08 03:46:38;;;;;;;1.73;1.10;;;;;;;24.33;nan;99135.00;5059422;28;20052;-70
2022/11/08 03:49:03;;;;;;;1.70;1.00;;;;;;;24.33;nan;99129.41;5059805;28;20041;-58
2022/11/08 03:51:28;;;;;;;2.17;1.20;;;;;;;24.33;nan;99141.41;5057703;28;20044;-70
2022/11/08 03:53:54;;;;;;;2.15;1.25;;;;;;;24.32;nan;99142.56;5061074;28;20105;-69
2022/11/08 03:56:19;;;;;;;1.52;0.98;;;;;;;24.33;nan;99133.00;5049913;28;20068;-70
2022/11/08 03:58:45;;;;;;;2.13;1.20;;;;;;;24.33;nan;99137.81;5050639;28;20509;-70
2022/11/08 04:01:10;;;;;;;1.50;0.90;;;;;;;24.32;nan;99141.78;5049604;28;20053;-58
2022/11/08 04:03:35;;;;;;;2.25;1.10;;;;;;;24.32;nan;99136.19;5053353;28;20048;-58
2022/11/08 04:06:02;;;;;;;1.38;1.00;;;;;;;24.32;nan;99131.38;5068569;28;20398;-58
2022/11/08 04:08:28;;;;;;;1.77;1.10;;;;;;;24.32;nan;99142.56;5061445;28;20261;-70
2022/11/08 04:10:55;;;;;;;1.98;1.20;;;;;;;24.31;nan;99137.41;5056086;28;20079;-58
2022/11/08 04:16:07;;;;;;;1.63;1.05;;;;;;;24.33;nan;99140.59;5060254;28;20052;-58
2022/11/08 04:21:20;;;;;;;2.85;1.10;;;;;;;24.32;nan;99141.78;5065073;28;20550;-58
2022/11/08 04:23:47;;;;;;;2.05;1.08;;;;;;;24.32;nan;99145.38;5056663;28;20045;-58
2022/11/08 04:26:13;;;;;;;1.80;1.05;;;;;;;24.32;nan;99159.34;5057073;28;20041;-70
2022/11/08 04:28:40;;;;;;;1.75;1.10;;;;;;;24.31;nan;99157.75;5069917;28;20479;-58
2022/11/08 04:31:09;;;;;;;1.90;1.30;;;;;;;24.29;nan;99137.81;5056574;28;20048;-58
2022/11/08 04:33:35;;;;;;;1.85;1.08;;;;;;;24.33;nan;99171.34;5069635;28;20532;-70
2022/11/08 04:36:02;;;;;;;1.73;1.05;;;;;;;24.31;nan;99165.34;5059823;28;20191;-56
2022/11/08 04:38:29;;;;;;;1.60;1.00;;;;;;;24.32;nan;99166.94;5079770;28;20051;-68
2022/11/08 04:41:03;;;;;;;1.73;1.00;;;;;;;24.32;nan;99164.94;5068675;28;20657;-57
2022/11/08 04:43:30;;;;;;;1.85;0.98;;;;;;;24.31;nan;99163.34;5049492;28;20053;-69
2022/11/08 04:46:00;;;;;;;2.08;1.23;;;;;;;24.32;nan;99156.53;5047623;28;20032;-58
2022/11/08 04:48:26;;;;;;;1.55;0.98;;;;;;;24.33;nan;99171.34;5051094;28;20045;-69
2022/11/08 04:50:51;;;;;;;1.67;1.10;;;;;;;24.34;nan;99162.56;5062250;28;20044;-57
2022/11/08 04:53:16;;;;;;;1.45;0.90;;;;;;;24.36;nan;99170.53;5052847;28;20103;-57
2022/11/08 04:55:42;;;;;;;1.67;1.10;;;;;;;24.37;nan;99163.75;5060516;28;20072;-57
2022/11/08 04:58:07;;;;;;;2.40;1.23;;;;;;;24.32;nan;99164.94;5060868;28;20067;-70
2022/11/08 05:00:33;;;;;;;1.90;1.00;;;;;;;24.35;nan;99157.75;5054806;28;20049;-70
2022/11/08 05:03:00;;;;;;;1.67;1.00;;;;;;;24.34;nan;99161.75;5057711;28;20048;-57
2022/11/08 05:05:26;;;;;;;1.42;0.90;;;;;;;24.35;nan;99171.72;5051497;28;20051;-70
2022/11/08 05:07:53;;;;;;;1.90;1.20;;;;;;;24.33;nan;99174.16;5071399;28;20135;-57
2022/11/08 05:10:18;;;;;;;2.42;1.40;;;;;;;24.34;nan;99164.56;5057583;28;20509;-70
2022/11/08 05:12:43;;;;;;;3.15;1.10;;;;;;;24.31;nan;99163.34;5063513;28;20102;-70
2022/11/08 05:15:09;;;;;;;1.83;1.10;;;;;;;24.33;nan;99191.72;5053752;28;20045;-70
2022/11/08 05:17:35;;;;;;;3.80;1.10;;;;;;;24.34;nan;99170.13;5047520;28;20052;-58
2022/11/08 05:25:31;;;;;;;1.67;1.10;;;;;;;24.31;nan;99160.53;5051900;28;20102;-70
2022/11/08 05:27:57;;;;;;;2.25;1.20;;;;;;;24.32;nan;99164.13;5047694;28;20041;-58
2022/11/08 05:30:22;;;;;;;3.13;1.02;;;;;;;24.32;nan;99176.13;5048214;28;20033;-70
2022/11/08 05:32:51;;;;;;;1.88;1.10;;;;;;;24.32;nan;99158.53;5059857;28;20063;-70
2022/11/08 05:35:20;;;;;;;1.90;1.20;;;;;;;24.32;nan;99164.13;5053953;28;20098;-58
2022/11/08 05:37:45;;;;;;;1.90;1.15;;;;;;;24.32;nan;99186.50;5065387;28;20078;-58
2022/11/08 05:40:11;;;;;;;1.55;1.00;;;;;;;24.31;nan;99159.75;5073972;28;20525;-70
2022/11/08 05:42:37;;;;;;;1.73;0.95;;;;;;;24.30;nan;99181.31;5054957;28;20052;-70
2022/11/08 05:45:02;;;;;;;3.35;0.95;;;;;;;24.29;nan;99165.75;5059059;28;20033;-56
2022/11/08 05:47:28;;;;;;;1.45;0.95;;;;;;;24.31;nan;99174.53;5053131;28;20110;-58
2022/11/08 05:49:53;;;;;;;1.75;1.17;;;;;;;24.30;nan;99161.75;5066488;28;20060;-70
2022/11/08 05:52:18;;;;;;;1.80;1.10;;;;;;;24.31;nan;99182.91;5063955;28;20369;-58
2022/11/08 05:54:44;;;;;;;2.00;1.30;;;;;;;24.32;nan;99158.53;5053937;28;20049;-70
2022/11/08 05:57:09;;;;;;;1.90;1.10;;;;;;;24.31;nan;99180.13;5063641;28;20127;-69
2022/11/08 05:59:35;;;;;;;1.98;1.17;;;;;;;24.29;nan;99164.94;5062011;28;20044;-58
2022/11/08 06:02:00;;;;;;;2.80;1.15;;;;;;;24.29;nan;99173.31;5060920;28;20515;-68
2022/11/08 06:04:25;;;;;;;1.65;1.00;;;;;;;24.30;nan;99184.13;5056260;28;20044;-56
2022/11/08 06:06:51;;;;;;;2.17;1.33;;;;;;;24.30;nan;99172.94;5061892;28;20451;-56
2022/11/08 06:09:17;;;;;;;2.60;1.55;;;;;;;24.31;nan;99191.28;5053724;28;20076;-68
2022/11/08 06:11:42;;;;;;;2.10;1.23;;;;;;;24.30;nan;99189.72;5076773;28;20045;-69
2022/11/08 06:14:07;;;;;;;2.38;1.30;;;;;;;24.30;nan;99200.09;5062463;28;20139;-56
2022/11/08 06:16:33;;;;;;;1.50;1.00;;;;;;;24.33;nan;99197.31;5051792;28;20045;-57
2022/11/08 06:18:58;;;;;;;2.10;1.20;;;;;;;24.31;nan;99185.72;5061693;28;20520;-69
2022/11/08 06:21:26;;;;;;;2.20;1.15;;;;;;;24.36;nan;99198.47;5052827;28;20677;-69
2022/11/08 06:23:53;;;;;;;1.42;0.93;;;;;;;24.35;nan;99202.47;5065518;28;20033;-69
2022/11/08 06:26:19;;;;;;;2.00;1.20;;;;;;;24.37;nan;99184.13;5056629;28;20040;-69
2022/11/08 06:28:44;;;;;;;1.58;1.10;;;;;;;24.38;nan;99191.31;5068645;28;20132;-57
2022/11/08 06:31:10;;;;;;;1.90;1.17;;;;;;;24.40;nan;99193.69;5056164;28;20080;-57
2022/11/08 06:33:35;;;;;;;1.23;0.90;;;;;;;24.40;nan;99210.47;5071143;28;20365;-57
2022/11/08 06:36:01;;;;;;;1.90;1.20;;;;;;;24.40;nan;99204.88;5065251;28;20286;-57
2022/11/08 06:38:26;;;;;;;2.17;1.13;;;;;;;24.40;nan;99202.06;5061300;28;20059;-57
2022/11/08 06:40:51;;;;;;;1.80;1.10;;;;;;;24.40;nan;99202.06;5051430;28;20049;-57
2022/11/08 06:43:17;;;;;;;1.80;1.15;;;;;;;24.42;nan;99196.88;5053698;28;20037;-68
2022/11/08 06:45:42;;;;;;;2.10;1.13;;;;;;;24.42;nan;99197.66;5069438;28;20082;-69
2022/11/08 06:48:08;;;;;;;2.88;1.25;;;;;;;24.41;nan;99206.47;5064286;28;20053;-57
2022/11/08 06:50:34;;;;;;;36.15;2.50;;;;;;;24.40;nan;99207.66;5053017;28;20049;-69
2022/11/08 06:53:03;;;;;;;30.48;3.35;;;;;;;24.41;nan;99210.06;5054181;28;20048;-58
2022/11/08 06:55:30;;;;;;;33.08;3.28;;;;;;;24.43;nan;99212.44;5060048;28;20505;-69
2022/11/08 06:57:56;;;;;;;16.23;2.03;;;;;;;24.45;nan;99221.25;5064800;28;20040;-69
2022/11/08 07:00:22;;;;;;;11.43;2.10;;;;;;;24.46;nan;99222.81;5057875;28;20055;-57
2022/11/08 07:02:52;;;;;;;14.43;1.90;;;;;;;24.42;nan;99206.06;5056343;28;20417;-57
2022/11/08 07:05:18;;;;;;;16.15;1.80;;;;;;;24.46;nan;99217.22;5066358;28;20045;-58
2022/11/08 07:07:44;;;;;;;18.65;2.10;;;;;;;24.47;nan;99223.63;5052522;28;20041;-58
2022/11/08 07:10:10;;;;;;;6.15;1.70;;;;;;;24.47;nan;99223.63;5050437;28;20041;-69
2022/11/08 07:12:36;;;;;;;14.05;2.28;;;;;;;24.47;nan;99230.00;5064834;28;20428;-69
2022/11/08 07:15:02;;;;;;;7.75;1.80;;;;;;;24.48;nan;99233.59;5068868;28;20045;-57
2022/11/08 07:17:28;;;;;;;14.35;2.08;;;;;;;24.49;nan;99232.41;5063676;28;20044;-69
2022/11/08 07:19:53;;;;;;;12.93;1.90;;;;;;;24.47;nan;99235.59;5069864;28;20044;-58
2022/11/08 07:22:18;;;;;;;8.30;1.55;;;;;;;24.46;nan;99241.59;5054505;28;20045;-57
2022/11/08 07:24:44;;;;;;;11.25;1.50;;;;;;;24.45;nan;99237.22;5053814;28;20045;-69
2022/11/08 07:27:09;;;;;;;6.95;1.45;;;;;;;24.45;nan;99256.78;5057302;28;20433;-56
2022/11/08 07:29:38;;;;;;;8.75;1.73;;;;;;;24.43;nan;99252.41;5052919;28;20131;-70
2022/11/08 07:32:03;;;;;;;5.15;1.40;;;;;;;24.42;nan;99253.56;5051984;28;20045;-68
2022/11/08 07:34:30;;;;;;;7.82;1.40;;;;;;;24.40;nan;99258.78;5077701;28;20052;-68
2022/11/08 07:36:55;;;;;;;6.90;1.63;;;;;;;24.41;nan;99265.97;5053265;28;20048;-69
2022/11/08 07:39:21;;;;;;;6.35;1.40;;;;;;;24.41;nan;99262.38;5058453;28;20390;-57
2022/11/08 07:41:47;;;;;;;6.05;1.75;;;;;;;24.38;nan;99250.00;5059747;28;20131;-69
2022/11/08 07:44:13;;;;;;;4.00;1.42;;;;;;;24.38;nan;99252.00;5063656;28;20128;-57
2022/11/08 07:46:39;;;;;;;4.68;1.42;;;;;;;24.39;nan;99267.59;5054289;28;20049;-76
2022/11/08 07:49:04;;;;;;;9.10;1.42;;;;;;;24.40;nan;99239.22;5066331;28;20052;-67
2022/11/08 07:51:29;;;;;;;4.72;1.50;;;;;;;24.44;nan;99261.59;5060268;28;20510;-57
2022/11/08 07:53:55;;;;;;;7.35;1.33;;;;;;;24.47;nan;99227.22;5056113;28;20071;-57
2022/11/08 07:56:20;;;;;;;3.47;1.40;;;;;;;24.52;nan;99234.41;5063257;28;20105;-57
2022/11/08 07:58:46;;;;;;;9.25;1.50;;;;;;;24.53;nan;99238.78;5062324;28;20048;-58
2022/11/08 08:01:11;;;;;;;4.22;1.25;;;;;;;24.57;nan;99243.16;5062056;28;20068;-70
2022/11/08 08:03:37;;;;;;;3.15;1.40;;;;;;;24.60;nan;99241.56;5060401;28;20046;-67
2022/11/08 08:06:03;;;;;;;2.60;1.15;;;;;;;24.62;nan;99248.34;5060242;28;20044;-67
2022/11/08 08:08:28;;;;;;;4.22;1.20;;;;;;;24.64;nan;99268.28;5062035;28;20040;-69
2022/11/08 08:10:59;;;;;;;4.63;1.30;;;;;;;24.65;nan;99255.13;5058821;28;20132;-69
2022/11/08 08:13:25;;;;;;;2.47;1.25;;;;;;;24.65;nan;99246.75;5059219;28;20051;-70
2022/11/08 08:15:54;;;;;;;2.20;1.35;;;;;;;24.65;nan;99253.13;5057169;28;20032;-69
2022/11/08 08:18:20;;;;;;;5.70;1.45;;;;;;;24.66;nan;99263.13;5055847;28;21613;-68
2022/11/08 08:20:46;;;;;;;4.55;1.20;;;;;;;24.63;nan;99257.53;5056668;28;20412;-58
2022/11/08 08:23:11;;;;;;;3.13;1.10;;;;;;;24.68;nan;99268.28;5059950;28;20049;-71
2022/11/08 08:25:37;;;;;;;4.95;1.30;;;;;;;24.70;nan;99246.31;5040251;28;20125;-58
2022/11/08 08:28:04;;;;;;;2.85;1.40;;;;;;;24.72;nan;99269.09;5053524;28;20041;-58
2022/11/08 08:30:30;;;;;;;3.28;1.38;;;;;;;24.71;nan;99243.09;5057428;28;20496;-58
2022/11/08 08:33:05;;;;;;;2.05;1.30;;;;;;;24.72;nan;99243.91;5058321;28;20094;-58
2022/11/08 08:35:32;;;;;;;6.03;1.35;;;;;;;24.76;nan;99250.28;5057587;28;20119;-57
2022/11/08 08:37:59;;;;;;;2.00;1.20;;;;;;;24.79;nan;99276.63;5062716;28;20063;-69
2022/11/08 08:40:25;;;;;;;1.95;1.17;;;;;;;24.77;nan;99229.50;5054207;28;20049;-57
2022/11/08 08:42:50;;;;;;;2.92;1.15;;;;;;;24.84;nan;99245.44;5058455;28;20102;-67
2022/11/08 08:45:16;;;;;;;2.00;1.17;;;;;;;24.83;nan;99261.44;5054776;28;20420;-58
2022/11/08 08:47:41;;;;;;;2.00;1.38;;;;;;;24.85;nan;99227.47;5056945;28;20059;-57
2022/11/08 08:50:07;;;;;;;1.92;1.10;;;;;;;24.85;nan;99275.03;5060787;28;20528;-57
2022/11/08 08:52:33;;;;;;;3.80;1.15;;;;;;;24.90;nan;99263.41;5050909;28;20039;-51
2022/11/08 08:54:58;;;;;;;4.22;1.40;;;;;;;24.91;nan;99256.59;5057883;28;20052;-57
2022/11/08 08:57:24;;;;;;;2.30;1.17;;;;;;;24.91;nan;99253.81;5064664;28;20094;-57
2022/11/08 08:59:50;;;;;;;8.48;1.48;;;;;;;24.94;nan;99264.22;5059101;28;20047;-58
2022/11/08 09:02:18;;;;;;;2.65;1.27;;;;;;;24.94;nan;99264.22;5035789;28;20041;-56
2022/11/08 09:04:45;;;;;;;2.83;1.40;;;;;;;24.92;nan;99264.59;5046636;28;20033;-55
2022/11/08 09:07:12;;;;;;;7.28;1.30;;;;;;;24.94;nan;99261.41;5058652;28;20049;-72
2022/11/08 09:09:37;;;;;;;2.05;1.20;;;;;;;24.95;nan;99269.38;5058758;28;20047;-77
2022/11/08 09:12:03;;;;;;;2.60;1.27;;;;;;;24.97;nan;99252.19;5059370;28;20047;-71
2022/11/08 09:14:28;;;;;;;4.32;1.20;;;;;;;24.97;nan;99247.38;5058797;28;20102;-69
2022/11/08 09:16:55;;;;;;;2.33;1.10;;;;;;;25.01;nan;99243.78;5054238;28;20083;-57
2022/11/08 09:19:20;;;;;;;2.08;1.10;;;;;;;25.01;nan;99247.38;5053999;28;20043;-56
2022/11/08 09:21:47;;;;;;;2.10;1.10;;;;;;;25.04;nan;99245.78;5059144;28;20089;-57
2022/11/08 09:24:13;;;;;;;2.00;1.10;;;;;;;25.08;nan;99268.97;5063244;28;20044;-68
2022/11/08 09:26:39;;;;;;;1.95;1.20;;;;;;;25.12;nan;99245.34;5060714;28;20558;-56
2022/11/08 09:29:04;;;;;;;3.45;1.30;;;;;;;25.13;nan;99248.94;5034611;28;20461;-53
2022/11/08 09:31:30;;;;;;;6.07;1.85;;;;;;;25.10;nan;99239.38;5059602;28;20037;-58
2022/11/08 09:33:55;;;;;;;2.75;1.30;;;;;;;25.09;nan;99245.38;5056083;28;20057;-59
2022/11/08 09:36:21;;;;;;;2.58;1.17;;;;;;;25.09;nan;99217.38;5043838;28;20128;-59
2022/11/08 09:38:46;;;;;;;2.72;1.33;;;;;;;25.06;nan;99227.38;5066438;28;20039;-58
2022/11/08 09:41:23;;;;;;;1.63;1.00;;;;;;;25.10;nan;99221.78;5061815;28;20036;-58
2022/11/08 09:44:12;;;;;;;2.45;1.27;;;;;;;25.12;nan;99228.53;5063247;28;20678;-59
2022/11/08 09:46:40;;;;;;;2.22;1.13;;;;;;;25.11;nan;99226.97;5063314;28;20052;-59
2022/11/08 09:49:15;;;;;;;2.97;1.10;;;;;;;25.10;nan;99242.16;5057465;28;20063;-59
2022/11/08 09:51:41;;;;;;;3.55;1.23;;;;;;;25.07;nan;99242.16;5057076;28;20041;-70
2022/11/08 09:54:16;;;;;;;3.00;1.08;;;;;;;25.08;nan;99227.00;5059054;28;20043;-71
2022/11/08 09:56:43;;;;;;;1.65;1.00;;;;;;;25.05;nan;99234.19;5059340;28;20501;-58
2022/11/08 09:59:38;;;;;;;5.88;1.10;;;;;;;25.06;nan;99229.38;5060965;28;20041;-58
2022/11/08 10:02:18;;;;;;;2.03;1.20;;;;;;;25.08;nan;99205.41;5056719;28;20454;-58
2022/11/08 10:05:11;;;;;;;3.88;1.20;;;;;;;25.07;nan;99214.19;5054324;28;20037;-56
2022/11/08 10:07:40;;;;;;;10.90;2.20;;;;;;;25.11;nan;99217.75;5051510;28;20047;-56
2022/11/08 10:10:43;;;;;;;10.60;4.07;;;;;;;24.81;nan;99219.09;5058070;28;20124;-57
2022/11/08 10:13:16;;;;;;;13.88;3.67;;;;;;;24.50;nan;99236.78;5056609;28;20617;-70
2022/11/08 10:16:15;;;;;;;11.77;5.00;;;;;;;24.20;nan;99212.88;5062737;28;20475;-57
2022/11/08 10:18:47;;;;;;;12.05;4.10;;;;;;;24.03;nan;99214.50;5065234;28;20044;-73
2022/11/08 10:21:27;;;;;;;10.93;3.80;;;;;;;24.09;nan;99220.50;5062527;28;20036;-55
2022/11/08 10:24:03;;;;;;;10.88;3.55;;;;;;;24.19;nan;99210.50;5060971;28;20471;-71
2022/11/08 10:26:44;;;;;;;8.50;2.72;;;;;;;24.40;nan;99208.47;5058447;28;20516;-66
2022/11/08 10:29:22;;;;;;;5.90;2.35;;;;;;;24.57;nan;99203.19;5054905;28;20059;-58
2022/11/08 10:31:55;;;;;;;7.95;2.72;;;;;;;24.65;nan;99200.00;5057961;28;20116;-73
2022/11/08 10:34:27;;;;;;;7.90;2.15;;;;;;;24.74;nan;99195.97;5054959;28;20080;-71
2022/11/08 10:37:00;;;;;;;7.88;2.10;;;;;;;24.85;nan;99188.28;5057821;28;20048;-58
2022/11/08 10:39:29;;;;;;;6.15;2.10;;;;;;;24.94;nan;99183.06;5063379;28;20053;-78
2022/11/08 10:42:30;;;;;;;6.22;2.00;;;;;;;25.02;nan;99179.00;5068103;28;20044;-56
2022/11/08 10:44:56;;;;;;;5.80;2.15;;;;;;;25.07;nan;99172.19;5061536;28;20040;-58
2022/11/08 10:47:28;;;;;;;3.90;1.98;;;;;;;25.09;nan;99173.41;5062604;28;20098;-57
2022/11/08 10:49:54;;;;;;;4.43;1.85;;;;;;;25.09;nan;99162.22;5062727;28;20037;-59
2022/11/08 10:52:34;;;;;;;3.42;1.70;;;;;;;25.14;nan;99156.16;5062555;28;20568;-60
2022/11/08 10:55:00;;;;;;;6.25;1.88;;;;;;;25.18;nan;99164.53;5060576;28;20498;-70
2022/11/08 10:57:32;;;;;;;4.47;1.75;;;;;;;25.20;nan;99150.91;5065345;28;20047;-67
2022/11/08 11:00:32;;;;;;;3.28;1.63;;;;;;;25.24;nan;99158.09;5058107;28;20044;-58
2022/11/08 11:02:57;;;;;;;4.13;1.63;;;;;;;25.28;nan;99146.06;5056151;28;20050;-68
2022/11/08 11:05:28;;;;;;;3.30;1.70;;;;;;;25.30;nan;99155.66;5056042;28;20047;-56
2022/11/08 11:08:13;;;;;;;2.42;1.38;;;;;;;25.35;nan;99146.00;5057905;28;20117;-57
2022/11/08 11:10:45;;;;;;;3.67;1.67;;;;;;;25.37;nan;99138.81;5061513;28;20090;-57
2022/11/08 11:13:21;;;;;;;3.33;1.52;;;;;;;25.41;nan;99147.16;5060706;28;20992;-70
2022/11/08 11:15:52;;;;;;;3.55;1.52;;;;;;;25.39;nan;99146.78;5023007;28;20046;-77
2022/11/08 11:18:26;;;;;;;4.30;1.40;;;;;;;25.37;nan;99122.00;5057465;28;20036;-57
2022/11/08 11:21:01;;;;;;;2.78;1.50;;;;;;;25.36;nan;99109.22;5061664;28;20413;-57
2022/11/08 11:23:53;;;;;;;2.65;1.33;;;;;;;25.37;nan;99110.81;5057218;28;20037;-57
2022/11/08 11:26:28;;;;;;;2.85;1.40;;;;;;;25.40;nan;99114.78;5051310;28;20133;-76
2022/11/08 11:29:25;;;;;;;4.32;1.23;;;;;;;25.41;nan;99116.38;5060128;28;20048;-57
2022/11/08 11:31:52;;;;;;;1.88;1.08;;;;;;;25.42;nan;99113.16;5055418;28;20048;-73
2022/11/08 11:34:18;;;;;;;2.33;1.30;;;;;;;25.42;nan;99106.75;5058972;28;20091;-71
2022/11/08 11:36:53;;;;;;;2.70;1.23;;;;;;;25.43;nan;99109.16;5061229;28;20084;-75
2022/11/08 11:39:26;;;;;;;2.33;1.20;;;;;;;25.44;nan;99099.53;5057933;28;20045;-59
2022/11/08 11:42:03;;;;;;;4.93;1.40;;;;;;;25.44;nan;99095.94;5025181;28;20052;-56
2022/11/08 11:44:47;;;;;;;2.72;1.10;;;;;;;25.42;nan;99089.94;5060222;28;20063;-72
2022/11/08 11:47:55;;;;;;;2.00;1.23;;;;;;;25.41;nan;99094.75;5052207;28;20124;-57
2022/11/08 11:50:32;;;;;;;2.17;1.20;;;;;;;25.43;nan;99077.53;5048475;28;20130;-58
2022/11/08 11:52:59;;;;;;;1.67;1.08;;;;;;;25.41;nan;99071.56;5060898;28;20085;-72
2022/11/08 11:55:42;;;;;;;5.53;1.10;;;;;;;25.44;nan;99065.16;5056797;28;20068;-57
2022/11/08 11:58:11;;;;;;;;;;;;;;;25.49;nan;99068.28;5058785;28;20032;-58
2022/11/08 12:00:45;;;;;;;1.80;1.00;;;;;;;25.47;nan;99064.31;5058336;28;19916;-58
2022/11/08 12:03:34;;;;;;;2.92;0.93;;;;;;;25.45;nan;99070.34;5066434;28;20051;-66
2022/11/08 12:06:15;;;;;;;1.70;1.05;;;;;;;25.46;nan;99059.91;5051989;28;20036;-71
2022/11/08 12:08:40;;;;;;;1.90;1.00;;;;;;;25.46;nan;99060.72;5062707;28;20598;-58
2022/11/08 12:11:27;;;;;;;2.10;1.10;;;;;;;25.47;nan;99059.50;5060689;28;20555;-68
2022/11/08 12:14:07;;;;;;;1.65;0.77;;;;;;;25.47;nan;99056.69;5058333;28;20075;-58
2022/11/08 12:16:58;;;;;;;1.42;0.70;;;;;;;25.48;nan;99052.69;5054656;28;20477;-59